createdAt,value
2023-02-01T00:00:41.852Z,2.72
2023-02-01T00:02:44.725Z,2.72
2023-02-01T00:04:47.388Z,2.73
2023-02-01T00:06:50.259Z,2.74
2023-02-01T00:08:55.037Z,2.75
2023-02-01T00:11:01.869Z,2.66
2023-02-01T00:13:05.976Z,2.76
2023-02-01T00:15:09.869Z,2.73
2023-02-01T00:17:12.540Z,2.64
2023-02-01T00:19:16.559Z,2.71
2023-02-01T00:21:22.025Z,2.67
2023-02-01T00:23:24.635Z,2.69
2023-02-01T00:25:27.368Z,2.69
2023-02-01T00:27:30.167Z,2.68
2023-02-01T00:29:34.354Z,2.70
2023-02-01T00:31:37.249Z,2.74
2023-02-01T00:33:39.868Z,2.81
2023-02-01T00:35:42.742Z,2.75
2023-02-01T00:37:45.477Z,2.74
2023-02-01T00:39:48.357Z,2.79
2023-02-01T00:41:51.065Z,2.82
2023-02-01T00:43:54.626Z,2.77
2023-02-01T00:45:58.637Z,2.78
2023-02-01T00:48:01.519Z,2.85
2023-02-01T00:50:04.515Z,2.85
2023-02-01T00:52:07.245Z,2.88
2023-02-01T00:54:10.031Z,2.85
2023-02-01T00:56:13.543Z,2.89
2023-02-01T00:58:16.485Z,2.83
2023-02-01T01:00:20.297Z,2.87
2023-02-01T01:02:24.461Z,2.85
2023-02-01T01:04:27.186Z,2.89
2023-02-01T01:06:31.959Z,2.92
2023-02-01T01:08:34.714Z,2.85
2023-02-01T01:10:37.392Z,2.95
2023-02-01T01:12:40.360Z,2.96
2023-02-01T01:14:42.942Z,2.90
2023-02-01T01:16:45.777Z,2.91
2023-02-01T01:18:49.929Z,2.98
2023-02-01T01:20:52.561Z,2.91
2023-02-01T01:22:55.255Z,2.93
2023-02-01T01:24:57.917Z,2.90
2023-02-01T01:27:00.743Z,2.87
2023-02-01T01:29:03.443Z,2.86
2023-02-01T01:31:06.366Z,2.84
2023-02-01T01:33:09.318Z,2.88
2023-02-01T01:35:13.826Z,2.91
2023-02-01T01:37:16.618Z,2.95
2023-02-01T01:39:19.525Z,2.94
2023-02-01T01:41:25.006Z,3.00
2023-02-01T01:43:27.696Z,2.95
2023-02-01T01:45:31.925Z,2.93
2023-02-01T01:47:39.309Z,2.96
2023-02-01T01:49:42.514Z,2.92
2023-02-01T01:51:51.036Z,2.96
2023-02-01T01:54:01.274Z,3.00
2023-02-01T01:56:04.097Z,3.01
2023-02-01T01:58:10.793Z,3.00
2023-02-01T02:00:16.025Z,3.03
2023-02-01T02:02:19.580Z,3.05
2023-02-01T02:04:22.489Z,3.00
2023-02-01T02:06:39.178Z,2.98
2023-02-01T02:08:43.364Z,3.05
2023-02-01T02:11:01.283Z,2.93
2023-02-01T02:13:04.155Z,2.97
2023-02-01T02:15:08.027Z,2.98
2023-02-01T02:17:26.208Z,2.97
2023-02-01T02:20:14.085Z,2.98
2023-02-01T02:22:35.744Z,2.96
2023-02-01T02:25:00.370Z,3.02
2023-02-01T02:27:23.945Z,3.09
2023-02-01T02:29:56.189Z,3.06
2023-02-01T02:32:15.799Z,3.03
2023-02-01T02:34:27.863Z,3.05
2023-02-01T02:36:39.667Z,3.06
2023-02-01T02:38:49.598Z,3.13
2023-02-01T02:41:03.999Z,3.19
2023-02-01T02:43:30.856Z,3.08
2023-02-01T02:45:57.408Z,3.07
2023-02-01T02:48:05.196Z,3.13
2023-02-01T02:50:34.948Z,3.14
2023-02-01T02:53:01.922Z,3.13
2023-02-01T02:55:07.719Z,3.12
2023-02-01T02:57:32.007Z,3.12
2023-02-01T02:59:54.500Z,3.14
2023-02-01T03:02:15.002Z,3.09
2023-02-01T03:04:19.307Z,3.08
2023-02-01T03:06:25.833Z,3.07
2023-02-01T03:08:30.340Z,3.05
2023-02-01T03:10:43.080Z,3.08
2023-02-01T03:12:57.427Z,3.08
2023-02-01T03:15:07.649Z,3.19
2023-02-01T03:17:16.038Z,3.07
2023-02-01T03:19:22.951Z,3.08
2023-02-01T03:21:32.161Z,3.12
2023-02-01T03:23:37.926Z,3.09
2023-02-01T03:25:41.234Z,3.12
2023-02-01T03:27:50.274Z,3.16
2023-02-01T03:29:58.508Z,3.13
2023-02-01T03:32:01.265Z,3.15
2023-02-01T03:34:04.457Z,3.15
2023-02-01T03:36:15.264Z,3.13
2023-02-01T03:38:25.036Z,3.15
2023-02-01T03:40:29.746Z,3.18
2023-02-01T03:42:39.189Z,3.15
2023-02-01T03:44:51.621Z,3.10
2023-02-01T03:46:56.924Z,3.12
2023-02-01T03:49:01.174Z,3.14
2023-02-01T03:51:07.464Z,3.06
2023-02-01T03:53:15.752Z,3.11
2023-02-01T03:55:24.293Z,3.11
2023-02-01T03:57:31.700Z,3.16
2023-02-01T03:59:34.503Z,3.26
2023-02-01T04:01:37.379Z,3.19
2023-02-01T04:03:40.103Z,3.22
2023-02-01T04:05:42.808Z,3.25
2023-02-01T04:07:45.514Z,3.25
2023-02-01T04:09:48.136Z,3.18
2023-02-01T04:11:52.246Z,3.27
2023-02-01T04:13:55.051Z,3.15
2023-02-01T04:15:57.646Z,3.22
2023-02-01T04:18:00.389Z,3.23
2023-02-01T04:20:03.127Z,3.22
2023-02-01T04:22:05.890Z,3.22
2023-02-01T04:24:09.494Z,3.21
2023-02-01T04:26:12.361Z,3.23
2023-02-01T04:28:16.317Z,3.36
2023-02-01T04:30:19.479Z,3.25
2023-02-01T04:32:22.240Z,3.30
2023-02-01T04:34:25.776Z,3.36
2023-02-01T04:36:28.516Z,3.29
2023-02-01T04:38:33.252Z,3.38
2023-02-01T04:40:38.420Z,3.32
2023-02-01T04:42:41.262Z,3.28
2023-02-01T04:44:45.303Z,3.31
2023-02-01T04:46:49.176Z,3.33
2023-02-01T04:48:51.930Z,3.31
2023-02-01T04:50:54.499Z,3.31
2023-02-01T04:52:57.160Z,3.32
2023-02-01T04:55:01.046Z,3.41
2023-02-01T04:57:03.895Z,3.40
2023-02-01T04:59:06.756Z,3.35
2023-02-01T05:01:11.036Z,3.45
2023-02-01T05:03:13.656Z,3.32
2023-02-01T05:05:16.464Z,3.32
2023-02-01T05:07:25.922Z,3.30
2023-02-01T05:09:36.519Z,3.44
2023-02-01T05:11:56.197Z,3.37
2023-02-01T05:13:59.212Z,3.42
2023-02-01T05:16:02.089Z,3.48
2023-02-01T05:18:06.323Z,3.42
2023-02-01T05:20:10.505Z,3.40
2023-02-01T05:22:13.265Z,3.45
2023-02-01T05:24:20.645Z,3.45
2023-02-01T05:26:23.452Z,3.55
2023-02-01T05:28:26.215Z,3.51
2023-02-01T05:30:28.876Z,3.50
2023-02-01T05:32:31.738Z,3.64
2023-02-01T05:34:35.797Z,3.54
2023-02-01T05:36:38.531Z,3.58
2023-02-01T05:38:41.356Z,3.56
2023-02-01T05:40:43.935Z,3.58
2023-02-01T05:42:46.560Z,3.63
2023-02-01T05:44:49.229Z,3.68
2023-02-01T05:46:53.256Z,3.62
2023-02-01T05:48:55.859Z,3.64
2023-02-01T05:50:59.848Z,3.67
2023-02-01T05:53:02.595Z,3.58
2023-02-01T05:55:05.984Z,3.57
2023-02-01T05:57:09.056Z,3.51
2023-02-01T05:59:11.802Z,3.60
2023-02-01T06:01:14.471Z,3.46
2023-02-01T06:03:17.106Z,3.39
2023-02-01T06:05:19.834Z,3.37
2023-02-01T06:07:24.637Z,3.31
2023-02-01T06:09:27.344Z,3.23
2023-02-01T06:11:32.779Z,3.19
2023-02-01T06:13:36.023Z,3.25
2023-02-01T06:15:39.370Z,3.14
2023-02-01T06:17:42.169Z,3.15
2023-02-01T06:19:45.719Z,3.07
2023-02-01T06:21:48.355Z,3.10
2023-02-01T06:23:52.773Z,3.18
2023-02-01T06:26:01.697Z,3.12
2023-02-01T06:28:06.611Z,3.18
2023-02-01T06:30:10.547Z,3.15
2023-02-01T06:32:13.162Z,3.22
2023-02-01T06:34:15.779Z,3.26
2023-02-01T06:36:19.630Z,3.30
2023-02-01T06:38:22.322Z,3.29
2023-02-01T06:40:26.428Z,3.20
2023-02-01T06:42:28.991Z,3.28
2023-02-01T06:44:31.676Z,3.28
2023-02-01T06:46:34.367Z,3.41
2023-02-01T06:48:37.103Z,3.35
2023-02-01T06:50:39.806Z,3.43
2023-02-01T06:52:42.445Z,3.44
2023-02-01T06:54:45.100Z,3.38
2023-02-01T06:56:49.098Z,3.50
2023-02-01T06:58:51.977Z,3.44
2023-02-01T07:00:54.878Z,3.47
2023-02-01T07:02:59.855Z,3.51
2023-02-01T07:05:02.430Z,3.44
2023-02-01T07:07:05.239Z,3.44
2023-02-01T07:09:08.341Z,3.50
2023-02-01T07:11:13.110Z,3.51
2023-02-01T07:13:17.132Z,3.59
2023-02-01T07:15:19.756Z,3.53
2023-02-01T07:17:22.445Z,3.60
2023-02-01T07:19:25.032Z,3.55
2023-02-01T07:21:28.731Z,3.60
2023-02-01T07:23:31.490Z,3.59
2023-02-01T07:25:36.357Z,3.61
2023-02-01T07:27:39.322Z,3.62
2023-02-01T07:29:43.257Z,3.69
2023-02-01T07:31:45.992Z,3.72
2023-02-01T07:33:48.814Z,3.69
2023-02-01T07:35:52.555Z,3.71
2023-02-01T07:37:55.205Z,3.81
2023-02-01T07:39:57.870Z,3.78
2023-02-01T07:42:00.573Z,3.81
2023-02-01T07:44:03.356Z,3.92
2023-02-01T07:46:08.109Z,3.85
2023-02-01T07:48:10.827Z,3.88
2023-02-01T07:50:13.461Z,3.96
2023-02-01T07:52:17.676Z,3.96
2023-02-01T07:54:20.444Z,4.04
2023-02-01T07:56:24.386Z,4.00
2023-02-01T07:58:27.930Z,4.01
2023-02-01T08:00:48.130Z,4.05
2023-02-01T08:02:52.188Z,3.95
2023-02-01T08:04:55.424Z,4.04
2023-02-01T08:06:58.077Z,4.05
2023-02-01T08:09:01.122Z,4.04
2023-02-01T08:11:06.038Z,4.05
2023-02-01T08:13:08.655Z,4.05
2023-02-01T08:15:12.158Z,4.13
2023-02-01T08:17:14.747Z,4.01
2023-02-01T08:19:18.901Z,4.06
2023-02-01T08:21:23.966Z,4.04
2023-02-01T08:23:26.614Z,3.99
2023-02-01T08:25:29.359Z,4.12
2023-02-01T08:27:34.417Z,4.12
2023-02-01T08:29:37.308Z,4.16
2023-02-01T08:31:42.790Z,4.13
2023-02-01T08:33:49.628Z,4.11
2023-02-01T08:35:53.602Z,4.15
2023-02-01T08:37:56.208Z,4.14
2023-02-01T08:39:58.855Z,4.25
2023-02-01T08:42:19.099Z,4.19
2023-02-01T08:44:21.781Z,4.32
2023-02-01T08:46:25.076Z,4.34
2023-02-01T08:48:27.720Z,4.28
2023-02-01T08:50:30.444Z,4.45
2023-02-01T08:52:35.195Z,4.50
2023-02-01T08:54:38.571Z,4.53
2023-02-01T08:56:41.499Z,4.52
2023-02-01T08:58:44.386Z,4.43
2023-02-01T09:00:49.040Z,4.44
2023-02-01T09:02:51.638Z,4.45
2023-02-01T09:04:54.971Z,4.42
2023-02-01T09:06:57.570Z,4.45
2023-02-01T09:09:01.560Z,4.46
2023-02-01T09:11:06.423Z,4.43
2023-02-01T09:13:09.122Z,4.44
2023-02-01T09:15:11.820Z,4.47
2023-02-01T09:17:14.804Z,4.55
2023-02-01T09:19:26.649Z,4.49
2023-02-01T09:21:30.203Z,4.58
2023-02-01T09:23:32.803Z,4.46
2023-02-01T09:25:38.925Z,4.40
2023-02-01T09:27:41.572Z,4.49
2023-02-01T09:29:44.206Z,4.45
2023-02-01T09:31:57.763Z,4.57
2023-02-01T09:34:05.694Z,4.44
2023-02-01T09:36:09.016Z,4.57
2023-02-01T09:38:11.725Z,4.61
2023-02-01T09:40:17.565Z,4.60
2023-02-01T09:42:43.896Z,4.65
2023-02-01T09:45:10.630Z,4.78
2023-02-01T09:47:15.772Z,4.99
2023-02-01T09:49:24.318Z,4.99
2023-02-01T09:51:32.340Z,5.03
2023-02-01T09:53:39.745Z,5.03
2023-02-01T09:55:45.200Z,5.01
2023-02-01T09:57:54.654Z,4.98
2023-02-01T10:00:03.150Z,5.19
2023-02-01T10:02:12.956Z,5.26
2023-02-01T10:04:17.666Z,5.06
2023-02-01T10:06:40.479Z,5.23
2023-02-01T10:09:02.229Z,5.40
2023-02-01T10:11:18.555Z,5.07
2023-02-01T10:13:46.245Z,5.07
2023-02-01T10:15:57.523Z,5.21
2023-02-01T10:18:15.906Z,4.94
2023-02-01T10:20:28.079Z,4.88
2023-02-01T10:23:05.273Z,5.14
2023-02-01T10:25:14.941Z,5.02
2023-02-01T10:27:22.334Z,4.99
2023-02-01T10:29:30.173Z,4.95
2023-02-01T10:31:37.400Z,5.09
2023-02-01T10:33:45.076Z,5.35
2023-02-01T10:35:54.221Z,5.16
2023-02-01T10:38:01.166Z,5.21
2023-02-01T10:40:14.366Z,5.54
2023-02-01T10:42:17.361Z,5.51
2023-02-01T10:44:24.285Z,5.56
2023-02-01T10:46:28.552Z,5.48
2023-02-01T10:48:31.393Z,5.46
2023-02-01T10:50:39.332Z,5.50
2023-02-01T10:52:46.936Z,5.55
2023-02-01T10:54:49.757Z,5.58
2023-02-01T10:56:54.401Z,5.63
2023-02-01T10:59:03.066Z,5.66
2023-02-01T11:01:08.079Z,5.59
2023-02-01T11:03:36.538Z,5.77
2023-02-01T11:05:46.812Z,5.52
2023-02-01T11:07:52.227Z,5.65
2023-02-01T11:09:57.366Z,5.64
2023-02-01T11:12:01.377Z,5.89
2023-02-01T11:14:16.608Z,5.88
2023-02-01T11:16:20.556Z,5.76
2023-02-01T11:18:29.833Z,5.76
2023-02-01T11:20:41.362Z,5.74
2023-02-01T11:22:48.923Z,5.90
2023-02-01T11:24:51.561Z,5.86
2023-02-01T11:26:57.666Z,5.88
2023-02-01T11:29:03.439Z,5.77
2023-02-01T11:31:11.142Z,5.85
2023-02-01T11:33:18.186Z,5.88
2023-02-01T11:35:23.070Z,5.85
2023-02-01T11:37:31.037Z,5.90
2023-02-01T11:39:36.521Z,5.87
2023-02-01T11:41:57.019Z,5.73
2023-02-01T11:44:01.530Z,5.88
2023-02-01T11:46:05.729Z,5.87
2023-02-01T11:48:15.032Z,5.87
2023-02-01T11:50:28.383Z,5.74
2023-02-01T11:52:51.472Z,5.98
2023-02-01T11:55:09.242Z,5.88
2023-02-01T11:57:30.223Z,6.08
2023-02-01T11:59:56.717Z,6.08
2023-02-01T12:02:22.671Z,6.10
2023-02-01T12:05:01.448Z,6.00
2023-02-01T12:07:13.773Z,5.85
2023-02-01T12:09:31.711Z,6.01
2023-02-01T12:11:51.131Z,5.85
2023-02-01T12:14:07.114Z,5.93
2023-02-01T12:16:21.321Z,5.93
2023-02-01T12:18:47.032Z,5.69
2023-02-01T12:21:06.745Z,5.98
2023-02-01T12:23:23.951Z,5.76
2023-02-01T12:25:38.566Z,5.65
2023-02-01T12:27:55.628Z,5.60
2023-02-01T12:30:12.899Z,5.72
2023-02-01T12:32:32.688Z,5.55
2023-02-01T12:35:02.828Z,5.65
2023-02-01T12:37:17.576Z,5.52
2023-02-01T12:39:26.163Z,5.61
2023-02-01T12:41:49.221Z,5.43
2023-02-01T12:43:56.796Z,5.57
2023-02-01T12:46:04.834Z,5.64
2023-02-01T12:48:24.722Z,5.57
2023-02-01T12:50:33.816Z,5.61
2023-02-01T12:52:42.091Z,5.66
2023-02-01T12:54:51.012Z,5.60
2023-02-01T12:57:02.696Z,5.55
2023-02-01T12:59:10.109Z,5.48
2023-02-01T13:01:19.247Z,5.56
2023-02-01T13:03:34.672Z,5.53
2023-02-01T13:05:48.952Z,5.38
2023-02-01T13:07:56.678Z,5.38
2023-02-01T13:10:05.487Z,5.29
2023-02-01T13:12:15.813Z,5.36
2023-02-01T13:14:29.479Z,5.43
2023-02-01T13:16:35.962Z,5.33
2023-02-01T13:18:41.529Z,5.45
2023-02-01T13:20:51.706Z,5.35
2023-02-01T13:22:59.913Z,5.44
2023-02-01T13:25:05.327Z,5.29
2023-02-01T13:27:08.115Z,5.44
2023-02-01T13:29:13.185Z,5.31
2023-02-01T13:31:46.946Z,5.33
2023-02-01T13:34:06.696Z,5.34
2023-02-01T13:36:24.980Z,5.44
2023-02-01T13:38:46.232Z,5.36
2023-02-01T13:40:56.779Z,5.38
2023-02-01T13:43:02.371Z,5.41
2023-02-01T13:45:16.327Z,5.40
2023-02-01T13:47:26.145Z,5.29
2023-02-01T13:49:33.314Z,5.42
2023-02-01T13:51:44.483Z,5.26
2023-02-01T13:53:49.867Z,5.36
2023-02-01T13:55:59.659Z,5.22
2023-02-01T13:58:17.644Z,5.34
2023-02-01T14:00:31.827Z,5.25
2023-02-01T14:02:51.100Z,5.20
2023-02-01T14:04:53.817Z,5.24
2023-02-01T14:06:59.216Z,5.23
2023-02-01T14:09:18.815Z,5.13
2023-02-01T14:11:37.247Z,5.21
2023-02-01T14:13:41.123Z,5.27
2023-02-01T14:16:10.209Z,5.25
2023-02-01T14:18:47.358Z,5.26
2023-02-01T14:20:54.358Z,5.24
2023-02-01T14:23:04.616Z,5.23
2023-02-01T14:25:19.411Z,5.38
2023-02-01T14:27:24.824Z,5.44
2023-02-01T14:29:33.124Z,5.44
2023-02-01T14:31:55.568Z,5.39
2023-02-01T14:34:00.261Z,5.43
2023-02-01T14:36:07.872Z,5.34
2023-02-01T14:38:12.278Z,5.35
2023-02-01T14:40:21.963Z,5.23
2023-02-01T14:42:28.792Z,5.32
2023-02-01T14:44:33.207Z,5.36
2023-02-01T14:47:21.612Z,5.29
2023-02-01T14:49:25.560Z,5.23
2023-02-01T14:51:28.969Z,5.23
2023-02-01T14:53:35.522Z,5.23
2023-02-01T14:55:43.097Z,5.35
2023-02-01T14:57:47.816Z,5.41
2023-02-01T14:59:54.123Z,5.37
2023-02-01T15:02:00.426Z,5.32
2023-02-01T15:04:07.204Z,5.40
2023-02-01T15:06:24.915Z,5.47
2023-02-01T15:08:30.651Z,5.51
2023-02-01T15:10:35.880Z,5.44
2023-02-01T15:12:45.346Z,5.39
2023-02-01T15:14:50.861Z,5.45
2023-02-01T15:16:55.434Z,5.43
2023-02-01T15:19:12.055Z,5.47
2023-02-01T15:21:30.469Z,5.41
2023-02-01T15:23:35.602Z,5.44
2023-02-01T15:25:40.601Z,5.34
2023-02-01T15:27:43.323Z,5.37
2023-02-01T15:29:45.966Z,5.38
2023-02-01T15:31:50.829Z,5.27
2023-02-01T15:33:58.393Z,5.27
2023-02-01T15:36:12.453Z,5.28
2023-02-01T15:38:36.370Z,5.23
2023-02-01T15:40:39.065Z,5.23
2023-02-01T15:42:54.070Z,5.29
2023-02-01T15:44:56.750Z,5.29
2023-02-01T15:47:00.675Z,5.42
2023-02-01T15:49:04.313Z,5.32
2023-02-01T15:51:07.975Z,5.22
2023-02-01T15:53:20.523Z,5.28
2023-02-01T15:55:36.836Z,5.35
2023-02-01T15:57:43.206Z,5.33
2023-02-01T15:59:48.051Z,5.35
2023-02-01T16:01:52.274Z,5.27
2023-02-01T16:04:18.987Z,5.39
2023-02-01T16:06:35.144Z,5.41
2023-02-01T16:08:38.618Z,5.45
2023-02-01T16:10:45.495Z,5.37
2023-02-01T16:12:48.843Z,5.44
2023-02-01T16:14:51.531Z,5.36
2023-02-01T16:16:55.436Z,5.38
2023-02-01T16:18:58.406Z,5.31
2023-02-01T16:21:01.007Z,5.38
2023-02-01T16:23:04.029Z,5.43
2023-02-01T16:25:07.621Z,5.25
2023-02-01T16:27:11.684Z,5.31
2023-02-01T16:29:16.254Z,5.24
2023-02-01T16:31:23.425Z,5.24
2023-02-01T16:33:26.573Z,5.29
2023-02-01T16:35:33.844Z,5.34
2023-02-01T16:37:37.224Z,5.33
2023-02-01T16:39:39.890Z,5.37
2023-02-01T16:41:42.481Z,5.23
2023-02-01T16:43:46.663Z,5.18
2023-02-01T16:45:50.766Z,5.15
2023-02-01T16:47:56.764Z,5.18
2023-02-01T16:49:59.419Z,5.28
2023-02-01T16:52:02.066Z,5.17
2023-02-01T16:54:05.524Z,5.09
2023-02-01T16:56:14.978Z,5.10
2023-02-01T16:58:18.489Z,5.05
2023-02-01T17:00:24.967Z,5.11
2023-02-01T17:02:28.731Z,5.02
2023-02-01T17:04:31.540Z,5.03
2023-02-01T17:06:34.621Z,4.98
2023-02-01T17:08:38.987Z,5.00
2023-02-01T17:10:41.821Z,4.97
2023-02-01T17:12:44.424Z,4.96
2023-02-01T17:14:47.133Z,4.88
2023-02-01T17:16:52.285Z,5.02
2023-02-01T17:18:58.763Z,4.94
2023-02-01T17:21:02.657Z,4.92
2023-02-01T17:23:05.582Z,4.98
2023-02-01T17:25:15.891Z,4.93
2023-02-01T17:27:19.391Z,4.89
2023-02-01T17:29:22.148Z,4.93
2023-02-01T17:31:25.088Z,4.87
2023-02-01T17:33:35.596Z,4.86
2023-02-01T17:35:38.989Z,4.97
2023-02-01T17:37:41.575Z,4.95
2023-02-01T17:39:56.584Z,4.92
2023-02-01T17:41:59.332Z,4.87
2023-02-01T17:44:02.024Z,4.92
2023-02-01T17:46:07.725Z,4.97
2023-02-01T17:48:10.475Z,4.85
2023-02-01T17:50:14.992Z,4.91
2023-02-01T17:52:19.760Z,4.94
2023-02-01T17:54:22.676Z,4.93
2023-02-01T17:56:26.570Z,4.89
2023-02-01T17:58:30.543Z,4.86
2023-02-01T18:00:33.551Z,4.88
2023-02-01T18:02:36.236Z,4.93
2023-02-01T18:04:38.881Z,4.91
2023-02-01T18:06:42.824Z,4.92
2023-02-01T18:08:45.972Z,4.83
2023-02-01T18:10:49.294Z,4.77
2023-02-01T18:12:52.244Z,4.78
2023-02-01T18:14:54.955Z,4.72
2023-02-01T18:16:57.655Z,4.83
2023-02-01T18:19:02.304Z,4.74
2023-02-01T18:21:05.253Z,4.71
2023-02-01T18:23:15.675Z,4.74
2023-02-01T18:25:21.325Z,4.75
2023-02-01T18:27:24.745Z,4.75
2023-02-01T18:29:28.408Z,4.72
2023-02-01T18:31:33.048Z,4.76
2023-02-01T18:33:35.764Z,4.80
2023-02-01T18:35:38.416Z,4.82
2023-02-01T18:37:42.271Z,4.86
2023-02-01T18:39:46.249Z,4.81
2023-02-01T18:41:51.738Z,4.91
2023-02-01T18:43:54.481Z,4.86
2023-02-01T18:45:57.423Z,4.92
2023-02-01T18:48:00.684Z,4.85
2023-02-01T18:50:03.404Z,4.96
2023-02-01T18:52:07.184Z,5.03
2023-02-01T18:54:10.829Z,4.99
2023-02-01T18:56:15.764Z,5.00
2023-02-01T18:58:19.200Z,5.01
2023-02-01T19:00:24.746Z,5.11
2023-02-01T19:02:27.749Z,5.10
2023-02-01T19:04:30.572Z,5.04
2023-02-01T19:06:34.111Z,5.06
2023-02-01T19:08:37.495Z,4.99
2023-02-01T19:10:42.541Z,5.08
2023-02-01T19:12:46.498Z,5.01
2023-02-01T19:14:49.308Z,5.07
2023-02-01T19:16:51.928Z,5.22
2023-02-01T19:18:54.702Z,5.22
2023-02-01T19:21:03.906Z,5.27
2023-02-01T19:23:06.471Z,5.16
2023-02-01T19:25:11.312Z,5.17
2023-02-01T19:27:13.962Z,5.16
2023-02-01T19:29:17.976Z,5.19
2023-02-01T19:31:20.745Z,5.08
2023-02-01T19:33:23.448Z,5.06
2023-02-01T19:35:26.312Z,5.01
2023-02-01T19:37:29.161Z,5.03
2023-02-01T19:39:32.081Z,4.92
2023-02-01T19:41:34.763Z,4.98
2023-02-01T19:43:39.605Z,4.97
2023-02-01T19:45:44.138Z,4.97
2023-02-01T19:47:46.932Z,4.97
2023-02-01T19:49:49.553Z,5.06
2023-02-01T19:51:52.223Z,4.99
2023-02-01T19:53:55.176Z,5.04
2023-02-01T19:55:59.364Z,4.94
2023-02-01T19:58:05.141Z,5.01
2023-02-01T20:00:17.069Z,5.06
2023-02-01T20:02:20.868Z,5.05
2023-02-01T20:04:23.777Z,5.01
2023-02-01T20:06:26.442Z,5.04
2023-02-01T20:08:29.107Z,4.99
2023-02-01T20:10:31.732Z,5.08
2023-02-01T20:12:34.433Z,5.03
2023-02-01T20:14:37.775Z,5.02
2023-02-01T20:16:40.860Z,5.08
2023-02-01T20:18:44.984Z,4.97
2023-02-01T20:20:47.694Z,4.92
2023-02-01T20:22:52.063Z,5.06
2023-02-01T20:24:57.450Z,5.06
2023-02-01T20:27:01.008Z,5.06
2023-02-01T20:29:04.179Z,5.07
2023-02-01T20:31:07.684Z,5.07
2023-02-01T20:33:10.408Z,5.03
2023-02-01T20:35:14.428Z,5.05
2023-02-01T20:37:17.106Z,5.15
2023-02-01T20:39:20.414Z,5.06
2023-02-01T20:41:24.384Z,5.06
2023-02-01T20:43:27.044Z,5.10
2023-02-01T20:45:29.761Z,5.20
2023-02-01T20:47:32.443Z,5.18
2023-02-01T20:49:35.751Z,5.12
2023-02-01T20:51:39.897Z,5.11
2023-02-01T20:53:43.829Z,5.17
2023-02-01T20:55:46.493Z,5.08
2023-02-01T20:57:49.232Z,5.18
2023-02-01T20:59:52.315Z,5.21
2023-02-01T21:01:55.079Z,5.11
2023-02-01T21:03:58.075Z,5.08
2023-02-01T21:06:01.210Z,5.13
2023-02-01T21:08:05.537Z,5.11
2023-02-01T21:10:09.389Z,5.10
2023-02-01T21:12:12.126Z,5.06
2023-02-01T21:14:14.772Z,5.13
2023-02-01T21:16:19.014Z,5.11
2023-02-01T21:18:21.692Z,5.12
2023-02-01T21:20:24.349Z,5.15
2023-02-01T21:22:26.993Z,5.16
2023-02-01T21:24:31.109Z,5.12
2023-02-01T21:26:40.937Z,5.12
2023-02-01T21:28:43.899Z,5.22
2023-02-01T21:30:46.491Z,5.15
2023-02-01T21:32:50.106Z,5.10
2023-02-01T21:34:53.175Z,5.07
2023-02-01T21:36:55.890Z,5.12
2023-02-01T21:39:03.525Z,5.15
2023-02-01T21:41:25.106Z,5.15
2023-02-01T21:43:27.808Z,5.12
2023-02-01T21:45:30.419Z,5.04
2023-02-01T21:47:33.027Z,5.12
2023-02-01T21:49:36.771Z,5.15
2023-02-01T21:51:40.047Z,5.19
2023-02-01T21:53:44.443Z,5.12
2023-02-01T21:55:47.182Z,5.16
2023-02-01T21:57:52.154Z,5.18
2023-02-01T21:59:54.878Z,5.19
2023-02-01T22:01:57.565Z,5.12
2023-02-01T22:04:00.216Z,5.12
2023-02-01T22:06:02.980Z,5.22
2023-02-01T22:08:05.996Z,5.12
2023-02-01T22:10:12.569Z,5.07
2023-02-01T22:12:15.570Z,5.10
2023-02-01T22:14:19.663Z,5.09
2023-02-01T22:16:22.882Z,5.17
2023-02-01T22:18:25.604Z,5.12
2023-02-01T22:20:28.929Z,5.11
2023-02-01T22:22:31.860Z,4.98
2023-02-01T22:24:35.841Z,4.83
2023-02-01T22:26:38.812Z,4.69
2023-02-01T22:28:41.768Z,4.70
2023-02-01T22:30:45.790Z,4.58
2023-02-01T22:32:48.817Z,4.53
2023-02-01T22:34:51.420Z,4.58
2023-02-01T22:36:54.032Z,4.52
2023-02-01T22:38:58.134Z,4.43
2023-02-01T22:41:02.503Z,4.48
2023-02-01T22:43:05.451Z,4.53
2023-02-01T22:45:08.684Z,4.45
2023-02-01T22:47:12.719Z,4.44
2023-02-01T22:49:15.486Z,4.38
2023-02-01T22:51:20.203Z,4.33
2023-02-01T22:53:22.897Z,4.34
2023-02-01T22:55:25.820Z,4.34
2023-02-01T22:57:28.594Z,4.32
2023-02-01T22:59:31.358Z,4.33
2023-02-01T23:01:34.927Z,4.31
2023-02-01T23:03:40.122Z,4.31
2023-02-01T23:05:42.877Z,4.35
2023-02-01T23:07:47.693Z,4.30
2023-02-01T23:09:51.160Z,4.24
2023-02-01T23:11:55.190Z,4.22
2023-02-01T23:13:57.867Z,4.32
2023-02-01T23:16:00.678Z,4.29
2023-02-01T23:18:03.350Z,4.23
2023-02-01T23:20:14.296Z,4.29
2023-02-01T23:22:16.954Z,4.33
2023-02-01T23:24:19.679Z,4.38
2023-02-01T23:26:23.278Z,4.34
2023-02-01T23:28:26.866Z,4.37
2023-02-01T23:30:29.514Z,4.36
2023-02-01T23:32:33.307Z,4.42
2023-02-01T23:34:36.729Z,4.46
2023-02-01T23:36:40.753Z,4.48
2023-02-01T23:38:43.851Z,4.53
2023-02-01T23:40:46.439Z,4.45
2023-02-01T23:43:09.111Z,4.41
2023-02-01T23:45:12.256Z,4.43
2023-02-01T23:47:15.342Z,4.41
2023-02-01T23:49:18.747Z,4.34
2023-02-01T23:51:22.274Z,4.36
2023-02-01T23:53:26.785Z,4.35
2023-02-01T23:55:29.548Z,4.41
2023-02-01T23:57:32.198Z,4.41
2023-02-01T23:59:35.316Z,4.40
